Time;durP1;ratioP1;P1;durP2;ratioP2;P2;SDS_P1;SDS_P2;PMS_P1;PMS_P2;Temp;Humidity;BMP_temperature;BMP_pressure;BME280_temperature;BME280_humidity;BME280_pressure;Samples;Min_cycle;Max_cycle;Signal;HPM_P1;HPM_P2
2022/07/30 00:02:18;;;;;;;9.48;3.47;;;16.20;99.90;;;;;;5034229;28;20067;-69
2022/07/30 00:04:44;;;;;;;9.50;2.55;;;16.20;99.90;;;;;;5034305;28;20075;-69
2022/07/30 00:07:10;;;;;;;7.97;2.58;;;16.20;99.90;;;;;;5034095;28;20068;-69
2022/07/30 00:09:36;;;;;;;8.15;3.55;;;16.20;99.90;;;;;;5033958;28;20013;-70
2022/07/30 00:12:02;;;;;;;7.82;3.03;;;16.20;99.90;;;;;;5033882;28;20509;-69
2022/07/30 00:14:28;;;;;;;9.18;3.38;;;16.20;99.90;;;;;;5033980;28;20018;-70
2022/07/30 00:16:53;;;;;;;8.80;3.13;;;16.20;99.90;;;;;;5034033;28;20086;-70
2022/07/30 00:19:19;;;;;;;24.27;3.72;;;16.20;99.90;;;;;;5033707;28;20029;-69
2022/07/30 00:21:45;;;;;;;12.60;3.80;;;16.20;99.90;;;;;;5033676;28;20512;-69
2022/07/30 00:24:10;;;;;;;11.27;3.80;;;16.20;99.90;;;;;;5034086;28;20032;-70
2022/07/30 00:26:36;;;;;;;11.70;4.50;;;16.20;99.90;;;;;;5033797;28;20081;-70
2022/07/30 00:29:03;;;;;;;9.80;3.17;;;16.20;99.90;;;;;;5033983;28;20032;-69
2022/07/30 00:31:29;;;;;;;11.48;3.33;;;16.20;99.90;;;;;;5033889;28;20040;-69
2022/07/30 00:33:54;;;;;;;11.10;3.50;;;16.20;99.90;;;;;;5033761;28;20022;-69
2022/07/30 00:36:20;;;;;;;11.35;3.40;;;16.20;99.90;;;;;;5033917;28;20031;-69
2022/07/30 00:38:45;;;;;;;13.30;3.78;;;16.20;99.90;;;;;;5033771;28;20044;-69
2022/07/30 00:41:11;;;;;;;6.18;2.85;;;16.20;99.90;;;;;;5033519;28;20029;-69
2022/07/30 00:43:37;;;;;;;9.43;3.47;;;16.20;99.90;;;;;;5033483;28;20496;-69
2022/07/30 00:46:02;;;;;;;15.63;3.92;;;16.20;99.90;;;;;;5033506;28;20040;-70
2022/07/30 00:48:28;;;;;;;10.10;3.67;;;16.10;99.90;;;;;;5033898;28;20493;-70
2022/07/30 00:50:54;;;;;;;10.05;3.75;;;16.10;99.90;;;;;;5033282;28;20163;-71
2022/07/30 00:53:19;;;;;;;9.82;3.20;;;16.10;99.90;;;;;;5033445;28;20030;-70
2022/07/30 00:55:45;;;;;;;10.32;3.60;;;16.10;99.90;;;;;;5033947;28;20093;-70
2022/07/30 00:58:10;;;;;;;40.00;4.78;;;16.10;99.90;;;;;;5033705;28;20033;-70
2022/07/30 01:00:36;;;;;;;14.65;4.07;;;16.10;99.90;;;;;;5033304;28;20028;-71
2022/07/30 01:03:03;;;;;;;7.82;3.20;;;16.10;99.90;;;;;;5033518;28;20041;-71
2022/07/30 01:05:29;;;;;;;15.40;4.95;;;16.00;99.90;;;;;;5033341;28;20068;-70
2022/07/30 01:07:54;;;;;;;6.45;3.75;;;16.10;99.90;;;;;;5033559;28;20049;-71
2022/07/30 01:10:20;;;;;;;8.98;3.72;;;16.00;99.90;;;;;;5033299;28;20481;-71
2022/07/30 01:12:46;;;;;;;8.90;3.90;;;16.00;99.90;;;;;;5033267;28;20052;-70
2022/07/30 01:15:11;;;;;;;17.00;4.00;;;16.00;99.90;;;;;;5033249;28;20021;-70
2022/07/30 01:17:38;;;;;;;10.68;4.20;;;16.00;99.90;;;;;;5033211;28;20037;-70
2022/07/30 01:20:07;;;;;;;6.47;3.92;;;16.00;99.90;;;;;;5033844;28;20041;-70
2022/07/30 01:22:51;;;;;;;12.70;4.05;;;16.00;99.90;;;;;;5033277;28;20060;-72
2022/07/30 01:25:27;;;;;;;9.75;3.72;;;15.90;99.90;;;;;;5037448;28;20029;-71
2022/07/30 01:27:59;;;;;;;9.40;3.65;;;15.90;99.90;;;;;;5037344;28;20025;-70
2022/07/30 01:30:29;;;;;;;9.13;3.42;;;15.90;99.90;;;;;;5038257;28;20022;-70
2022/07/30 01:32:57;;;;;;;10.10;3.63;;;15.90;99.90;;;;;;5038479;28;20026;-70
2022/07/30 01:35:26;;;;;;;9.82;3.65;;;15.90;99.90;;;;;;5037317;28;20415;-70
2022/07/30 01:37:54;;;;;;;7.75;3.53;;;15.90;99.90;;;;;;5036818;28;20026;-70
2022/07/30 01:40:21;;;;;;;8.95;4.25;;;15.90;99.90;;;;;;5036950;28;20064;-70
2022/07/30 01:42:52;;;;;;;13.48;4.07;;;15.90;99.90;;;;;;5037321;28;20021;-70
2022/07/30 01:45:18;;;;;;;7.93;4.13;;;15.90;99.90;;;;;;5037304;28;20041;-71
2022/07/30 01:47:45;;;;;;;16.05;4.70;;;15.90;99.90;;;;;;5036889;28;20409;-71
2022/07/30 01:50:13;;;;;;;7.53;4.75;;;15.90;99.90;;;;;;5036643;28;20018;-70
2022/07/30 01:52:40;;;;;;;10.75;4.57;;;15.90;99.90;;;;;;5036650;28;20030;-70
2022/07/30 01:55:08;;;;;;;8.80;4.80;;;15.90;99.90;;;;;;5036974;28;20425;-70
2022/07/30 01:57:36;;;;;;;12.60;4.05;;;15.90;99.90;;;;;;5036861;28;20099;-71
2022/07/30 02:00:05;;;;;;;13.02;4.93;;;15.90;99.90;;;;;;5036580;28;20032;-70
2022/07/30 02:02:31;;;;;;;14.32;5.50;;;15.90;99.90;;;;;;5036249;28;20433;-70
2022/07/30 02:04:56;;;;;;;6.50;4.10;;;15.90;99.90;;;;;;5036450;28;20025;-70
2022/07/30 02:07:25;;;;;;;12.10;4.72;;;15.90;99.90;;;;;;5036465;28;20033;-71
2022/07/30 02:09:54;;;;;;;8.98;4.15;;;15.90;99.90;;;;;;5036680;28;20363;-70
2022/07/30 02:12:29;;;;;;;8.57;4.45;;;15.90;99.90;;;;;;5036432;28;20028;-70
2022/07/30 02:15:22;;;;;;;9.80;4.95;;;15.90;99.90;;;;;;5036491;28;20025;-70
2022/07/30 02:18:15;;;;;;;10.48;4.40;;;15.90;99.90;;;;;;5036855;28;20018;-71
2022/07/30 02:20:45;;;;;;;9.90;4.40;;;15.90;99.90;;;;;;5036229;28;20037;-70
2022/07/30 02:23:14;;;;;;;8.45;3.75;;;15.80;99.90;;;;;;5036259;28;20120;-70
2022/07/30 02:25:45;;;;;;;6.22;3.53;;;15.90;99.90;;;;;;5036349;28;20040;-71
2022/07/30 02:28:13;;;;;;;11.55;4.50;;;15.90;99.90;;;;;;5036199;28;20029;-70
2022/07/30 02:30:47;;;;;;;12.30;5.28;;;15.90;99.90;;;;;;5036021;28;20451;-70
2022/07/30 02:33:15;;;;;;;14.93;4.82;;;15.80;99.90;;;;;;5036245;28;20029;-71
2022/07/30 02:35:41;;;;;;;8.55;4.03;;;15.80;99.90;;;;;;5035347;28;20084;-71
2022/07/30 02:38:10;;;;;;;7.40;3.70;;;15.80;99.90;;;;;;5035814;28;20367;-71
2022/07/30 02:40:40;;;;;;;14.55;5.38;;;15.80;99.90;;;;;;5036114;28;20025;-71
2022/07/30 02:43:06;;;;;;;9.75;4.53;;;15.90;99.90;;;;;;5036191;28;20079;-71
2022/07/30 02:45:33;;;;;;;9.30;3.80;;;15.90;99.90;;;;;;5036470;28;20037;-71
2022/07/30 02:48:02;;;;;;;15.77;4.93;;;15.80;99.90;;;;;;5034187;28;20453;-70
2022/07/30 02:50:29;;;;;;;9.48;3.90;;;15.90;99.90;;;;;;5035922;28;20021;-70
2022/07/30 02:52:58;;;;;;;10.07;3.83;;;15.80;99.90;;;;;;5035715;28;20528;-70
2022/07/30 02:55:27;;;;;;;10.60;4.10;;;15.90;99.90;;;;;;5035754;28;20450;-70
2022/07/30 02:57:53;;;;;;;14.48;4.90;;;15.90;99.90;;;;;;5035512;28;20017;-70
2022/07/30 03:00:20;;;;;;;9.05;4.03;;;15.80;99.90;;;;;;5035508;28;20544;-70
2022/07/30 03:02:46;;;;;;;17.30;5.45;;;15.90;99.90;;;;;;5035455;28;20394;-70
2022/07/30 03:05:14;;;;;;;16.73;5.15;;;16.00;99.90;;;;;;5035424;28;20025;-70
2022/07/30 03:07:40;;;;;;;11.50;4.72;;;15.90;99.90;;;;;;5035661;28;20025;-71
2022/07/30 03:10:07;;;;;;;7.68;4.38;;;15.90;99.90;;;;;;5035190;28;20029;-70
2022/07/30 03:12:33;;;;;;;10.80;5.03;;;15.90;99.90;;;;;;5034854;28;20025;-70
2022/07/30 03:14:59;;;;;;;8.38;5.00;;;15.90;99.90;;;;;;5035257;28;20026;-70
2022/07/30 03:17:27;;;;;;;8.65;4.65;;;16.00;99.90;;;;;;5035461;28;20024;-70
2022/07/30 03:19:54;;;;;;;11.57;5.35;;;15.90;99.90;;;;;;5034987;28;20021;-71
2022/07/30 03:22:22;;;;;;;12.15;5.45;;;15.90;99.90;;;;;;5035186;28;20470;-71
2022/07/30 03:24:50;;;;;;;8.57;4.20;;;15.90;99.90;;;;;;5035421;28;20032;-71
2022/07/30 03:27:17;;;;;;;11.48;5.32;;;15.90;99.90;;;;;;5035686;28;20044;-71
2022/07/30 03:29:44;;;;;;;7.05;4.40;;;15.90;99.90;;;;;;5035214;28;20501;-70
2022/07/30 03:32:11;;;;;;;8.65;4.50;;;15.90;99.90;;;;;;5034932;28;20053;-70
2022/07/30 03:34:37;;;;;;;9.30;4.20;;;15.90;99.90;;;;;;5035114;28;20083;-70
2022/07/30 03:37:04;;;;;;;8.70;4.82;;;15.90;99.90;;;;;;5033577;28;20017;-71
2022/07/30 03:39:33;;;;;;;8.45;4.40;;;15.90;99.90;;;;;;5035070;28;20053;-70
2022/07/30 03:41:59;;;;;;;9.93;4.40;;;15.90;99.90;;;;;;5034764;28;20021;-70
2022/07/30 03:44:25;;;;;;;12.68;4.50;;;15.90;99.90;;;;;;5034826;28;20075;-70
2022/07/30 03:46:52;;;;;;;7.10;4.03;;;15.90;99.90;;;;;;5035468;28;20357;-70
2022/07/30 03:49:19;;;;;;;12.18;5.13;;;15.90;99.90;;;;;;5034733;28;20108;-70
2022/07/30 03:51:45;;;;;;;10.20;4.95;;;15.90;99.90;;;;;;5035086;28;20029;-71
2022/07/30 03:54:12;;;;;;;14.32;6.32;;;15.90;99.90;;;;;;5035906;28;20450;-71
2022/07/30 03:56:38;;;;;;;13.07;5.25;;;16.00;99.90;;;;;;5034235;28;20386;-71
2022/07/30 03:59:04;;;;;;;9.98;3.92;;;16.00;99.90;;;;;;5034614;28;20017;-71
2022/07/30 04:01:30;;;;;;;21.60;7.78;;;15.90;99.90;;;;;;5034344;28;20017;-71
2022/07/30 04:04:09;;;;;;;10.35;4.88;;;16.00;99.90;;;;;;5034624;28;20378;-71
2022/07/30 04:06:39;;;;;;;11.77;4.93;;;16.00;99.90;;;;;;5034517;28;20051;-70
2022/07/30 04:09:09;;;;;;;11.50;4.65;;;16.00;99.90;;;;;;5034390;28;20017;-71
2022/07/30 04:11:35;;;;;;;11.85;4.80;;;16.00;99.90;;;;;;5034464;28;20478;-71
2022/07/30 04:14:01;;;;;;;16.40;5.47;;;16.00;99.90;;;;;;5034180;28;20033;-71
2022/07/30 04:16:45;;;;;;;15.85;5.32;;;16.00;99.90;;;;;;5034297;28;20488;-71
2022/07/30 04:19:25;;;;;;;;;;;16.00;99.90;;;;;;5034848;28;20029;-71
2022/07/30 04:21:52;;;;;;;12.93;4.35;;;16.00;99.90;;;;;;5033733;28;19991;-71
2022/07/30 04:24:19;;;;;;;14.63;4.78;;;16.00;99.90;;;;;;5034477;28;20440;-71
2022/07/30 04:26:46;;;;;;;11.15;4.25;;;16.00;99.90;;;;;;5034041;28;20028;-71
2022/07/30 04:29:12;;;;;;;7.55;3.47;;;16.00;99.90;;;;;;5030058;28;20030;-70
2022/07/30 04:31:38;;;;;;;11.88;6.00;;;16.00;99.90;;;;;;5029888;28;20040;-70
2022/07/30 04:34:05;;;;;;;14.43;5.13;;;16.00;99.90;;;;;;5023838;28;20064;-71
2022/07/30 04:36:32;;;;;;;11.45;3.85;;;16.00;99.90;;;;;;5014096;28;20478;-71
2022/07/30 04:38:59;;;;;;;9.85;4.68;;;16.00;99.90;;;;;;5014076;28;20030;-71
2022/07/30 04:41:25;;;;;;;9.13;4.53;;;16.00;99.90;;;;;;5013996;28;20026;-70
2022/07/30 04:43:51;;;;;;;12.38;4.93;;;16.00;99.90;;;;;;5019239;28;20030;-71
2022/07/30 04:46:17;;;;;;;6.97;3.60;;;16.00;99.90;;;;;;5033988;28;20057;-71
2022/07/30 04:48:42;;;;;;;8.82;3.67;;;16.00;99.90;;;;;;5030827;28;20107;-70
2022/07/30 04:51:32;;;;;;;10.85;4.40;;;16.00;99.90;;;;;;5033683;28;20029;-71
2022/07/30 04:54:00;;;;;;;8.95;4.30;;;16.00;99.90;;;;;;5031655;28;20121;-71
2022/07/30 04:56:29;;;;;;;14.18;4.35;;;16.10;99.90;;;;;;5033728;28;20025;-71
2022/07/30 04:58:55;;;;;;;7.18;3.90;;;16.00;99.90;;;;;;5032931;28;20028;-71
2022/07/30 05:01:23;;;;;;;8.95;4.78;;;16.10;99.90;;;;;;5018281;28;20026;-71
2022/07/30 05:03:51;;;;;;;9.23;4.80;;;16.00;99.90;;;;;;5014094;28;20057;-70
2022/07/30 05:06:17;;;;;;;6.18;3.95;;;16.10;99.90;;;;;;5013836;28;20126;-71
2022/07/30 05:08:43;;;;;;;8.98;4.15;;;16.10;99.90;;;;;;5025844;28;20438;-70
2022/07/30 05:11:12;;;;;;;8.77;4.53;;;16.20;99.90;;;;;;5033657;28;20029;-70
2022/07/30 05:13:40;;;;;;;11.63;4.75;;;16.20;99.90;;;;;;5033450;28;20033;-71
2022/07/30 05:16:06;;;;;;;12.50;4.57;;;16.20;99.90;;;;;;5033366;28;20486;-71
2022/07/30 05:18:32;;;;;;;16.50;5.53;;;16.20;99.90;;;;;;5033433;28;20072;-71
2022/07/30 05:20:58;;;;;;;7.65;4.00;;;16.20;99.90;;;;;;5033203;28;20033;-71
2022/07/30 05:23:23;;;;;;;7.85;4.82;;;16.20;99.90;;;;;;5033502;28;20053;-71
2022/07/30 05:25:49;;;;;;;13.13;4.93;;;16.20;99.90;;;;;;5033401;28;20057;-71
2022/07/30 05:28:14;;;;;;;10.05;3.95;;;16.30;99.90;;;;;;5033403;28;20035;-71
2022/07/30 05:30:40;;;;;;;7.25;3.65;;;16.30;99.90;;;;;;5031726;28;20076;-71
2022/07/30 05:33:05;;;;;;;6.57;3.90;;;16.20;99.90;;;;;;5031952;28;20040;-71
2022/07/30 05:35:31;;;;;;;13.00;5.63;;;16.30;99.90;;;;;;5033175;28;20084;-70
2022/07/30 05:37:59;;;;;;;13.60;4.95;;;16.40;99.90;;;;;;5033112;28;20025;-70
2022/07/30 05:40:24;;;;;;;8.32;4.03;;;16.40;99.90;;;;;;5032875;28;20045;-70
2022/07/30 05:42:50;;;;;;;9.68;5.03;;;16.40;99.90;;;;;;5031821;28;20053;-70
2022/07/30 05:45:15;;;;;;;12.05;4.53;;;16.40;99.90;;;;;;5033091;28;20032;-70
2022/07/30 05:47:41;;;;;;;8.43;4.88;;;16.40;99.90;;;;;;5033065;28;20033;-71
2022/07/30 05:50:07;;;;;;;14.30;5.50;;;16.50;99.90;;;;;;5033139;28;20423;-71
2022/07/30 05:52:32;;;;;;;14.98;4.97;;;16.40;99.90;;;;;;5033055;28;20040;-71
2022/07/30 05:54:58;;;;;;;17.60;5.00;;;16.40;99.90;;;;;;5033161;28;20386;-70
2022/07/30 05:57:24;;;;;;;15.00;5.15;;;16.40;99.90;;;;;;5032830;28;20029;-71
2022/07/30 05:59:49;;;;;;;12.70;4.90;;;16.40;99.90;;;;;;5033182;28;20025;-71
2022/07/30 06:02:15;;;;;;;10.32;5.10;;;16.40;99.90;;;;;;5033001;28;20026;-71
2022/07/30 06:04:41;;;;;;;14.95;5.10;;;16.40;99.90;;;;;;5032992;28;20025;-71
2022/07/30 06:07:06;;;;;;;8.18;4.38;;;16.40;99.90;;;;;;5033086;28;20022;-71
2022/07/30 06:09:32;;;;;;;11.52;5.05;;;16.40;99.90;;;;;;5033965;28;20021;-71
2022/07/30 06:11:57;;;;;;;11.70;5.30;;;16.50;99.90;;;;;;5036503;28;20026;-71
2022/07/30 06:14:23;;;;;;;13.27;6.10;;;16.50;99.90;;;;;;5036422;28;20029;-71
2022/07/30 06:16:49;;;;;;;18.17;5.88;;;16.60;99.90;;;;;;5036845;28;20022;-70
2022/07/30 06:19:14;;;;;;;11.63;5.13;;;16.70;99.90;;;;;;5037626;28;20435;-72
2022/07/30 06:21:40;;;;;;;15.40;6.00;;;16.70;99.90;;;;;;5036858;28;20025;-71
2022/07/30 06:24:06;;;;;;;20.35;5.38;;;16.80;99.90;;;;;;5036296;28;20460;-71
2022/07/30 06:26:32;;;;;;;17.33;6.07;;;16.80;99.90;;;;;;5036305;28;20056;-71
2022/07/30 06:28:57;;;;;;;16.92;5.47;;;16.90;99.90;;;;;;5036246;28;20478;-71
2022/07/30 06:31:23;;;;;;;24.50;5.97;;;17.00;99.90;;;;;;5036160;28;20029;-71
2022/07/30 06:33:49;;;;;;;8.40;5.03;;;17.10;99.90;;;;;;5036032;28;20067;-71
2022/07/30 06:36:14;;;;;;;7.60;4.13;;;17.10;99.90;;;;;;5036289;28;20092;-71
2022/07/30 06:38:40;;;;;;;14.20;4.88;;;17.20;99.90;;;;;;5035887;28;20010;-71
2022/07/30 06:41:06;;;;;;;15.35;5.18;;;17.30;99.90;;;;;;5036247;28;20041;-71
2022/07/30 06:43:31;;;;;;;6.38;3.75;;;17.30;99.90;;;;;;5036281;28;20503;-70
2022/07/30 06:45:57;;;;;;;4.60;3.78;;;17.40;99.90;;;;;;5036458;28;20356;-71
2022/07/30 06:48:23;;;;;;;9.77;3.45;;;17.40;99.90;;;;;;5036134;28;20022;-71
2022/07/30 06:50:48;;;;;;;6.90;3.20;;;17.50;99.90;;;;;;5035593;28;20060;-71
2022/07/30 06:53:14;;;;;;;7.68;3.58;;;17.60;99.90;;;;;;5035754;28;20029;-71
2022/07/30 06:55:39;;;;;;;13.25;4.03;;;17.70;99.90;;;;;;5036172;28;20207;-71
2022/07/30 06:58:05;;;;;;;7.97;4.50;;;17.80;99.90;;;;;;5035747;28;20021;-71
2022/07/30 07:00:30;;;;;;;7.97;4.47;;;17.90;99.90;;;;;;5035642;28;20096;-71
2022/07/30 07:02:56;;;;;;;7.88;3.40;;;18.00;99.90;;;;;;5035794;28;20053;-71
2022/07/30 07:05:22;;;;;;;9.88;4.20;;;18.10;99.90;;;;;;5034129;28;20029;-70
2022/07/30 07:07:48;;;;;;;6.95;3.53;;;18.40;99.90;;;;;;5034429;28;20025;-72
2022/07/30 07:10:13;;;;;;;7.22;3.80;;;18.40;99.90;;;;;;5035411;28;20021;-72
2022/07/30 07:12:39;;;;;;;13.43;4.00;;;18.70;99.90;;;;;;5023031;28;20113;-71
2022/07/30 07:15:05;;;;;;;9.57;3.75;;;18.80;99.90;;;;;;5015618;28;20474;-71
2022/07/30 07:17:31;;;;;;;10.40;3.67;;;19.00;99.90;;;;;;5023581;28;20083;-71
2022/07/30 07:19:57;;;;;;;14.20;4.25;;;19.10;99.90;;;;;;5035588;28;20029;-70
2022/07/30 07:22:22;;;;;;;10.73;4.25;;;19.00;99.90;;;;;;5034608;28;20386;-70
2022/07/30 07:24:48;;;;;;;7.03;3.28;;;19.10;99.90;;;;;;5035159;28;20018;-71
2022/07/30 07:27:14;;;;;;;10.77;2.53;;;19.00;99.90;;;;;;5035347;28;20390;-71
2022/07/30 07:29:40;;;;;;;15.00;3.78;;;18.80;99.90;;;;;;5035115;28;20021;-71
2022/07/30 07:32:05;;;;;;;8.20;2.83;;;18.70;99.90;;;;;;5035144;28;20025;-71
2022/07/30 07:34:31;;;;;;;3.95;2.47;;;18.60;99.90;;;;;;5035023;28;20037;-71
2022/07/30 07:36:58;;;;;;;4.35;2.60;;;18.60;99.90;;;;;;5035315;28;20136;-70
2022/07/30 07:39:23;;;;;;;6.13;3.40;;;18.40;99.90;;;;;;5035020;28;20057;-70
2022/07/30 07:41:49;;;;;;;12.23;3.03;;;18.50;99.90;;;;;;5034939;28;20104;-71
2022/07/30 07:44:14;;;;;;;6.38;2.20;;;18.40;99.90;;;;;;5034911;28;20030;-71
2022/07/30 07:46:40;;;;;;;2.88;2.33;;;18.40;99.90;;;;;;5035042;28;20033;-71
2022/07/30 07:49:05;;;;;;;11.23;2.83;;;18.40;99.90;;;;;;5034802;28;20057;-71
2022/07/30 07:51:31;;;;;;;5.20;2.25;;;18.40;99.90;;;;;;5034498;28;20025;-70
2022/07/30 07:53:57;;;;;;;5.10;2.70;;;18.40;99.90;;;;;;5034535;28;20040;-71
2022/07/30 07:56:23;;;;;;;14.27;3.53;;;18.40;99.90;;;;;;5034723;28;20100;-71
2022/07/30 07:58:52;;;;;;;8.13;2.83;;;18.30;99.90;;;;;;5034760;28;20018;-71
2022/07/30 08:01:18;;;;;;;7.93;3.05;;;18.20;99.90;;;;;;5034830;28;20433;-71
2022/07/30 08:03:44;;;;;;;6.47;2.60;;;18.20;99.90;;;;;;5034507;28;20033;-70
2022/07/30 08:06:09;;;;;;;4.43;2.83;;;18.20;99.90;;;;;;5035047;28;20075;-71
2022/07/30 08:08:35;;;;;;;6.72;2.35;;;18.30;99.90;;;;;;5034553;28;20147;-71
2022/07/30 08:11:02;;;;;;;9.93;2.95;;;18.20;99.90;;;;;;5033220;28;20030;-71
2022/07/30 08:13:27;;;;;;;11.57;3.05;;;18.20;99.90;;;;;;5034351;28;20481;-71
2022/07/30 08:15:53;;;;;;;6.20;2.75;;;18.20;99.90;;;;;;5034133;28;20076;-71
2022/07/30 08:18:18;;;;;;;22.92;4.70;;;18.30;99.90;;;;;;5034271;28;20063;-71
2022/07/30 08:20:44;;;;;;;8.15;3.03;;;18.20;99.90;;;;;;5034027;28;20038;-71
2022/07/30 08:23:10;;;;;;;9.13;2.47;;;18.10;99.90;;;;;;5034276;28;20017;-71
2022/07/30 08:25:35;;;;;;;4.90;2.63;;;18.10;99.90;;;;;;5034219;28;20029;-71
2022/07/30 08:28:02;;;;;;;5.43;2.42;;;18.20;99.90;;;;;;5034435;28;20017;-71
2022/07/30 08:30:29;;;;;;;6.75;2.90;;;18.20;99.90;;;;;;5033963;28;20528;-71
2022/07/30 08:32:54;;;;;;;5.45;2.92;;;18.20;99.90;;;;;;5033182;28;20363;-70
2022/07/30 08:35:20;;;;;;;9.57;3.42;;;18.20;99.90;;;;;;5034092;28;20024;-71
2022/07/30 08:37:45;;;;;;;8.50;2.80;;;18.20;99.90;;;;;;5034231;28;20025;-71
2022/07/30 08:40:11;;;;;;;10.43;3.03;;;18.20;99.90;;;;;;5033852;28;20033;-71
2022/07/30 08:42:37;;;;;;;10.20;3.50;;;18.10;99.90;;;;;;5034825;28;20474;-72
2022/07/30 08:45:04;;;;;;;7.22;2.92;;;18.20;99.90;;;;;;5034760;28;20013;-72
2022/07/30 08:47:32;;;;;;;9.60;3.58;;;18.20;99.90;;;;;;5034020;28;20022;-70
2022/07/30 08:50:03;;;;;;;7.57;2.45;;;18.30;99.90;;;;;;5033765;28;20018;-70
2022/07/30 08:52:34;;;;;;;12.88;3.63;;;18.40;99.90;;;;;;5033806;28;20018;-71
2022/07/30 08:55:00;;;;;;;10.57;3.30;;;18.40;99.90;;;;;;5034047;28;20048;-70
2022/07/30 08:57:29;;;;;;;6.50;2.42;;;18.50;99.90;;;;;;5033333;28;20034;-70
2022/07/30 08:59:56;;;;;;;9.73;3.22;;;18.70;99.90;;;;;;5033882;28;20048;-70
2022/07/30 09:02:22;;;;;;;16.02;4.15;;;18.80;99.90;;;;;;5033494;28;20477;-70
2022/07/30 09:04:47;;;;;;;8.30;4.20;;;18.80;99.90;;;;;;5033805;28;20029;-71
2022/07/30 09:07:13;;;;;;;8.73;4.13;;;19.00;99.90;;;;;;5033663;28;20030;-71
2022/07/30 09:09:38;;;;;;;11.40;4.47;;;19.20;99.90;;;;;;5034079;28;20500;-70
2022/07/30 09:12:43;;;;;;;10.40;4.75;;;19.40;99.90;;;;;;5033590;28;20057;-70
2022/07/30 09:15:09;;;;;;;5.47;2.85;;;19.50;99.90;;;;;;5033645;28;20025;-70
2022/07/30 09:17:59;;;;;;;8.60;4.10;;;19.60;99.90;;;;;;5033487;28;20435;-70
2022/07/30 09:20:30;;;;;;;6.15;3.25;;;19.70;99.90;;;;;;5033508;28;20099;-71
2022/07/30 09:22:58;;;;;;;9.68;4.30;;;19.80;99.90;;;;;;5033627;28;20113;-70
2022/07/30 09:25:47;;;;;;;10.40;3.80;;;19.90;99.90;;;;;;5033763;28;20100;-70
2022/07/30 09:28:13;;;;;;;8.10;3.35;;;20.00;99.90;;;;;;5033148;28;20026;-70
2022/07/30 09:30:50;;;;;;;11.85;4.07;;;20.00;99.90;;;;;;5031858;28;20371;-70
2022/07/30 09:33:40;;;;;;;6.65;3.88;;;20.00;99.90;;;;;;5033502;28;20500;-70
2022/07/30 09:36:08;;;;;;;10.57;4.35;;;19.80;99.90;;;;;;5027164;28;20498;-70
2022/07/30 09:38:53;;;;;;;8.25;3.17;;;19.80;99.90;;;;;;5032868;28;20026;-70
2022/07/30 09:41:31;;;;;;;5.65;2.47;;;20.00;99.90;;;;;;5032543;28;20533;-70
2022/07/30 09:43:57;;;;;;;8.45;3.20;;;20.20;99.90;;;;;;5031022;28;20034;-69
2022/07/30 09:46:45;;;;;;;9.55;2.63;;;20.40;99.90;;;;;;5037141;28;20048;-70
2022/07/30 09:49:19;;;;;;;11.07;3.33;;;20.60;99.90;;;;;;5037167;28;20021;-70
2022/07/30 09:51:45;;;;;;;5.05;2.42;;;20.80;99.90;;;;;;5036813;28;20033;-70
2022/07/30 09:54:10;;;;;;;8.65;2.92;;;20.90;99.90;;;;;;5036391;28;20029;-70
2022/07/30 09:56:36;;;;;;;6.47;3.30;;;21.10;99.90;;;;;;5036355;28;20104;-70
2022/07/30 09:59:02;;;;;;;6.90;2.67;;;21.20;99.90;;;;;;5036471;28;20482;-70
2022/07/30 10:01:28;;;;;;;14.43;4.10;;;21.20;99.90;;;;;;5036415;28;20026;-70
2022/07/30 10:03:54;;;;;;;11.13;2.88;;;21.30;99.90;;;;;;5036857;28;20075;-70
2022/07/30 10:06:35;;;;;;;9.27;2.88;;;21.30;99.90;;;;;;5036674;28;20035;-70
2022/07/30 10:09:00;;;;;;;7.82;3.22;;;21.40;99.90;;;;;;5035177;28;20034;-70
2022/07/30 10:11:28;;;;;;;4.05;2.42;;;21.40;99.90;;;;;;5036491;28;20032;-71
2022/07/30 10:13:55;;;;;;;7.07;2.85;;;21.30;99.90;;;;;;5036367;28;20079;-70
2022/07/30 10:16:21;;;;;;;8.15;2.65;;;21.40;99.90;;;;;;5036325;28;20100;-70
2022/07/30 10:18:47;;;;;;;10.60;3.72;;;21.60;99.90;;;;;;5036351;28;20374;-69
2022/07/30 10:21:14;;;;;;;9.77;2.55;;;21.60;99.90;;;;;;5036106;28;20526;-69
2022/07/30 10:23:40;;;;;;;10.52;2.47;;;21.70;99.90;;;;;;5036241;28;20033;-70
2022/07/30 10:26:07;;;;;;;10.98;2.35;;;21.80;99.90;;;;;;5036018;28;20022;-70
2022/07/30 10:28:33;;;;;;;8.63;2.78;;;22.00;99.90;;;;;;5036455;28;20030;-70
2022/07/30 10:30:59;;;;;;;4.45;1.77;;;22.10;99.90;;;;;;5035778;28;20025;-70
2022/07/30 10:33:28;;;;;;;3.75;2.25;;;22.30;99.90;;;;;;5035541;28;20025;-70
2022/07/30 10:35:54;;;;;;;7.60;2.03;;;22.40;99.90;;;;;;5036209;28;20072;-69
2022/07/30 10:38:23;;;;;;;4.40;1.98;;;22.60;99.90;;;;;;5036243;28;20030;-69
2022/07/30 10:40:57;;;;;;;5.72;2.10;;;22.90;99.90;;;;;;5035670;28;20029;-69
2022/07/30 10:44:08;;;;;;;5.82;1.88;;;23.10;99.90;;;;;;5035840;28;20033;-69
2022/07/30 10:46:57;;;;;;;9.70;2.30;;;23.40;99.90;;;;;;5025625;28;20036;-69
2022/07/30 10:49:24;;;;;;;6.50;1.92;;;23.60;99.90;;;;;;5036239;28;20485;-70
2022/07/30 10:51:51;;;;;;;10.38;2.20;;;23.50;99.90;;;;;;5035657;28;20044;-70
2022/07/30 10:54:32;;;;;;;6.72;1.92;;;23.50;99.90;;;;;;5035649;28;20037;-71
2022/07/30 10:57:14;;;;;;;4.63;1.83;;;23.50;99.90;;;;;;5034360;28;20032;-71
2022/07/30 10:59:48;;;;;;;17.52;2.65;;;23.50;99.90;;;;;;5035737;28;20071;-71
2022/07/30 11:02:15;;;;;;;5.90;2.60;;;23.50;99.90;;;;;;5035490;28;20025;-71
2022/07/30 11:04:41;;;;;;;8.43;2.35;;;23.40;99.90;;;;;;5036098;28;20029;-71
2022/07/30 11:07:22;;;;;;;6.65;2.17;;;23.40;99.90;;;;;;5035712;28;20025;-71
2022/07/30 11:09:59;;;;;;;5.30;2.40;;;23.40;99.90;;;;;;5035641;28;20048;-71
2022/07/30 11:12:44;;;;;;;7.97;2.60;;;23.20;99.90;;;;;;5035791;28;20505;-71
2022/07/30 11:15:16;;;;;;;10.55;3.35;;;23.10;99.90;;;;;;5035537;28;20026;-71
2022/07/30 11:18:09;;;;;;;7.68;2.50;;;23.30;99.90;;;;;;5035214;28;20436;-70
2022/07/30 11:20:35;;;;;;;10.43;2.30;;;23.60;99.90;;;;;;5035658;28;20444;-70
2022/07/30 11:23:31;;;;;;;9.20;3.38;;;24.00;99.90;;;;;;5035212;28;20060;-70
2022/07/30 11:25:56;;;;;;;7.10;2.20;;;24.00;99.90;;;;;;5034983;28;20482;-71
2022/07/30 11:28:34;;;;;;;12.60;2.78;;;24.00;99.90;;;;;;5035397;28;20083;-71
2022/07/30 11:31:00;;;;;;;3.47;1.85;;;24.00;99.90;;;;;;5034922;28;20104;-71
2022/07/30 11:33:26;;;;;;;10.88;2.30;;;24.10;99.90;;;;;;5035462;28;20113;-71
2022/07/30 11:36:09;;;;;;;12.93;2.17;;;24.20;99.90;;;;;;5034933;28;20022;-71
2022/07/30 11:38:50;;;;;;;;;;;24.50;99.90;;;;;;5035415;28;20373;-71
2022/07/30 11:41:16;;;;;;;4.97;2.25;;;24.90;99.90;;;;;;5034760;28;19912;-71
2022/07/30 11:43:41;;;;;;;6.57;2.17;;;25.50;99.90;;;;;;5034985;28;20029;-71
2022/07/30 11:46:30;;;;;;;6.75;2.22;;;26.00;99.90;;;;;;5034461;28;20060;-69
2022/07/30 11:48:57;;;;;;;7.50;2.03;;;26.50;99.90;;;;;;5034568;28;20021;-70
2022/07/30 11:51:24;;;;;;;6.38;2.83;;;26.50;99.90;;;;;;5034420;28;20064;-70
2022/07/30 11:54:01;;;;;;;12.45;2.58;;;26.40;99.90;;;;;;5034356;28;20051;-70
2022/07/30 11:56:26;;;;;;;6.82;2.90;;;26.30;99.90;;;;;;5034611;28;20026;-70
2022/07/30 11:59:01;;;;;;;6.55;2.72;;;25.90;99.90;;;;;;5034421;28;20040;-69
2022/07/30 12:01:26;;;;;;;5.28;2.45;;;25.70;99.90;;;;;;5034526;28;20021;-69
2022/07/30 12:03:52;;;;;;;5.57;2.38;;;26.10;99.90;;;;;;5034553;28;20037;-70
2022/07/30 12:06:18;;;;;;;9.38;2.72;;;26.10;99.90;;;;;;5034220;28;20034;-70
2022/07/30 12:08:49;;;;;;;4.10;2.05;;;26.10;99.90;;;;;;5033898;28;20021;-70
2022/07/30 12:11:16;;;;;;;7.70;2.80;;;26.00;99.90;;;;;;5032877;28;20026;-70
2022/07/30 12:13:42;;;;;;;6.10;2.60;;;26.00;99.90;;;;;;5034570;28;20030;-69
2022/07/30 12:16:14;;;;;;;7.68;2.08;;;26.00;99.90;;;;;;5034356;28;20025;-69
2022/07/30 12:18:40;;;;;;;4.13;1.83;;;25.90;99.90;;;;;;5033943;28;20087;-67
2022/07/30 12:21:08;;;;;;;9.05;2.63;;;26.10;99.90;;;;;;5033809;28;20414;-68
2022/07/30 12:23:34;;;;;;;8.52;2.60;;;26.10;99.90;;;;;;5032703;28;20049;-68
2022/07/30 12:26:01;;;;;;;8.48;3.17;;;26.00;99.90;;;;;;5033765;28;20036;-68
2022/07/30 12:28:29;;;;;;;4.65;2.30;;;26.10;99.90;;;;;;5033929;28;20159;-70
2022/07/30 12:30:56;;;;;;;7.47;1.92;;;26.40;99.90;;;;;;5033644;28;20494;-70
2022/07/30 12:33:22;;;;;;;8.20;2.30;;;26.90;99.90;;;;;;5033748;28;20057;-70
2022/07/30 12:35:53;;;;;;;8.38;2.78;;;27.70;99.90;;;;;;5033712;28;20437;-69
2022/07/30 12:38:21;;;;;;;15.13;2.92;;;28.40;99.90;;;;;;5034322;28;20041;-68
2022/07/30 12:41:00;;;;;;;5.45;1.90;;;28.30;99.90;;;;;;5033572;28;20029;-70
2022/07/30 12:43:54;;;;;;;6.20;2.00;;;28.00;99.90;;;;;;5033705;28;20021;-70
2022/07/30 12:46:27;;;;;;;5.20;2.47;;;27.60;99.90;;;;;;5033750;28;20043;-70
2022/07/30 12:49:01;;;;;;;8.95;2.72;;;27.10;99.90;;;;;;5033450;28;20111;-70
2022/07/30 12:51:31;;;;;;;7.88;2.45;;;26.50;99.90;;;;;;5033575;28;20021;-70